createdAt,value
2022-11-08T00:01:05.759Z,66.71
2022-11-08T00:03:32.347Z,66.84
2022-11-08T00:05:58.921Z,66.76
2022-11-08T00:08:25.410Z,66.64
2022-11-08T00:10:51.824Z,66.47
2022-11-08T00:13:18.396Z,66.60
2022-11-08T00:15:44.868Z,66.53
2022-11-08T00:18:11.338Z,66.49
2022-11-08T00:20:37.791Z,66.36
2022-11-08T00:23:04.350Z,66.35
2022-11-08T00:25:30.885Z,66.09
2022-11-08T00:27:57.640Z,65.93
2022-11-08T00:30:24.118Z,65.75
2022-11-08T00:32:50.586Z,65.79
2022-11-08T00:35:17.138Z,65.77
2022-11-08T00:37:43.618Z,66.04
2022-11-08T00:40:10.726Z,66.30
2022-11-08T00:42:37.314Z,66.56
2022-11-08T00:45:04.250Z,66.50
2022-11-08T00:47:30.728Z,66.88
2022-11-08T00:49:57.448Z,66.90
2022-11-08T00:52:23.881Z,66.83
2022-11-08T00:54:50.501Z,66.88
2022-11-08T00:57:16.970Z,67.03
2022-11-08T00:59:43.436Z,66.95
2022-11-08T01:02:10.098Z,66.85
2022-11-08T01:04:36.599Z,66.81
2022-11-08T01:07:03.138Z,66.81
2022-11-08T01:09:29.742Z,67.01
2022-11-08T01:11:56.206Z,66.83
2022-11-08T01:14:22.691Z,66.95
2022-11-08T01:16:49.147Z,67.00
2022-11-08T01:19:15.625Z,67.06
2022-11-08T01:21:42.075Z,67.14
2022-11-08T01:24:08.774Z,66.94
2022-11-08T01:26:35.245Z,66.92
2022-11-08T01:29:01.716Z,66.86
2022-11-08T01:31:30.401Z,66.95
2022-11-08T01:33:58.060Z,66.97
2022-11-08T01:36:27.193Z,66.89
2022-11-08T01:38:54.677Z,66.82
2022-11-08T01:41:23.301Z,66.89
2022-11-08T01:43:53.819Z,66.95
2022-11-08T01:46:20.369Z,66.85
2022-11-08T01:48:59.095Z,67.11
2022-11-08T01:51:31.199Z,67.16
2022-11-08T01:53:59.609Z,66.90
2022-11-08T01:56:26.788Z,66.89
2022-11-08T01:58:55.301Z,66.93
2022-11-08T02:01:21.928Z,67.12
2022-11-08T02:03:48.618Z,67.02
2022-11-08T02:06:15.893Z,66.95
2022-11-08T02:08:44.564Z,66.88
2022-11-08T02:11:14.358Z,66.93
2022-11-08T02:13:40.900Z,66.92
2022-11-08T02:16:16.202Z,67.01
2022-11-08T02:18:45.595Z,67.17
2022-11-08T02:21:17.539Z,67.08
2022-11-08T02:23:52.298Z,67.04
2022-11-08T02:26:24.892Z,66.94
2022-11-08T02:28:51.806Z,66.99
2022-11-08T02:31:19.470Z,67.10
2022-11-08T02:33:47.570Z,67.10
2022-11-08T02:36:20.271Z,67.21
2022-11-08T02:38:50.687Z,67.12
2022-11-08T02:41:17.175Z,67.04
2022-11-08T02:43:43.859Z,67.14
2022-11-08T02:46:10.445Z,67.22
2022-11-08T02:48:36.921Z,67.22
2022-11-08T02:51:03.487Z,67.45
2022-11-08T02:53:30.035Z,67.72
2022-11-08T02:55:56.660Z,67.58
2022-11-08T02:58:23.154Z,67.53
2022-11-08T03:00:49.647Z,67.65
2022-11-08T03:03:16.126Z,67.85
2022-11-08T03:05:42.583Z,67.94
2022-11-08T03:08:09.329Z,67.89
2022-11-08T03:10:35.802Z,67.97
2022-11-08T03:13:04.835Z,68.04
2022-11-08T03:15:31.454Z,67.90
2022-11-08T03:17:59.430Z,67.78
2022-11-08T03:20:31.298Z,67.56
2022-11-08T03:23:07.567Z,67.79
2022-11-08T03:25:34.760Z,67.47
2022-11-08T03:28:03.296Z,67.46
2022-11-08T03:30:29.927Z,67.27
2022-11-08T03:32:56.478Z,67.09
2022-11-08T03:35:23.188Z,67.05
2022-11-08T03:37:51.684Z,67.01
2022-11-08T03:40:18.158Z,66.88
2022-11-08T03:42:45.559Z,66.60
2022-11-08T03:45:12.777Z,66.69
2022-11-08T03:47:40.804Z,66.52
2022-11-08T03:50:07.947Z,66.40
2022-11-08T03:52:50.940Z,66.38
2022-11-08T03:55:19.557Z,66.51
2022-11-08T03:57:47.808Z,66.51
2022-11-08T04:00:15.016Z,66.45
2022-11-08T04:02:41.851Z,66.48
2022-11-08T04:05:09.862Z,66.68
2022-11-08T04:07:37.332Z,66.78
2022-11-08T04:10:05.491Z,66.73
2022-11-08T04:12:38.988Z,66.76
2022-11-08T04:15:07.080Z,66.87
2022-11-08T04:17:33.735Z,66.81
2022-11-08T04:20:00.250Z,66.93
2022-11-08T04:22:26.735Z,66.82
2022-11-08T04:24:53.324Z,67.16
2022-11-08T04:27:19.811Z,67.30
2022-11-08T04:29:46.367Z,67.56
2022-11-08T04:32:12.999Z,67.75
2022-11-08T04:34:39.439Z,67.90
2022-11-08T04:37:05.982Z,67.91
2022-11-08T04:39:32.728Z,67.92
2022-11-08T04:42:02.093Z,67.74
2022-11-08T04:44:29.344Z,67.76
2022-11-08T04:46:56.323Z,67.77
2022-11-08T04:49:22.809Z,67.59
2022-11-08T04:51:49.347Z,67.61
2022-11-08T04:54:15.992Z,67.58
2022-11-08T04:56:42.458Z,67.54
2022-11-08T04:59:12.150Z,67.36
2022-11-08T05:01:39.250Z,67.32
2022-11-08T05:04:05.845Z,67.02
2022-11-08T05:06:32.692Z,67.02
2022-11-08T05:09:00.145Z,67.02
2022-11-08T05:11:28.471Z,66.89
2022-11-08T05:13:55.510Z,67.01
2022-11-08T05:16:24.357Z,66.94
2022-11-08T05:18:50.900Z,67.02
2022-11-08T05:21:21.899Z,67.04
2022-11-08T05:23:50.157Z,67.13
2022-11-08T05:26:18.449Z,67.29
2022-11-08T05:28:45.140Z,67.29
2022-11-08T05:31:11.752Z,67.08
2022-11-08T05:33:38.650Z,66.71
2022-11-08T05:36:07.829Z,66.82
2022-11-08T05:38:34.888Z,66.83
2022-11-08T05:41:03.239Z,66.82
2022-11-08T05:43:29.848Z,66.94
2022-11-08T05:45:56.457Z,66.84
2022-11-08T05:48:23.017Z,66.75
2022-11-08T05:50:49.990Z,66.84
2022-11-08T05:53:16.985Z,66.81
2022-11-08T05:55:43.805Z,66.83
2022-11-08T05:58:10.490Z,66.78
2022-11-08T06:00:36.945Z,66.92
2022-11-08T06:03:04.944Z,66.81
2022-11-08T06:05:32.089Z,66.53
2022-11-08T06:07:58.609Z,66.80
2022-11-08T06:10:25.979Z,66.73
2022-11-08T06:12:52.699Z,66.58
2022-11-08T06:15:19.371Z,66.48
2022-11-08T06:17:46.354Z,66.47
2022-11-08T06:20:13.023Z,66.54
2022-11-08T06:22:39.491Z,66.67
2022-11-08T06:25:06.319Z,66.65
2022-11-08T06:27:32.822Z,67.00
2022-11-08T06:29:59.280Z,67.12
2022-11-08T06:32:25.799Z,67.24
2022-11-08T06:34:52.262Z,67.16
2022-11-08T06:37:18.746Z,67.41
2022-11-08T06:39:45.314Z,67.37
2022-11-08T06:42:11.814Z,67.50
2022-11-08T06:44:38.394Z,67.64
2022-11-08T06:47:05.069Z,67.70
2022-11-08T06:49:31.501Z,67.91
2022-11-08T06:51:57.944Z,68.29
2022-11-08T06:54:26.876Z,68.42
2022-11-08T06:56:53.671Z,68.60
2022-11-08T06:59:20.164Z,68.90
2022-11-08T07:01:46.812Z,68.81
2022-11-08T07:04:13.572Z,68.74
2022-11-08T07:06:40.150Z,69.23
2022-11-08T07:09:06.648Z,69.14
2022-11-08T07:11:33.238Z,69.47
2022-11-08T07:13:59.722Z,69.61
2022-11-08T07:16:26.377Z,69.91
2022-11-08T07:18:53.367Z,70.03
2022-11-08T07:21:19.963Z,69.97
2022-11-08T07:23:46.497Z,70.01
2022-11-08T07:26:12.970Z,70.10
2022-11-08T07:28:39.731Z,70.05
2022-11-08T07:31:06.823Z,70.00
2022-11-08T07:33:33.934Z,69.80
2022-11-08T07:36:00.545Z,69.76
2022-11-08T07:38:27.014Z,69.71
2022-11-08T07:41:01.014Z,69.27
2022-11-08T07:43:29.342Z,69.62
2022-11-08T07:46:01.733Z,69.55
2022-11-08T07:48:30.041Z,69.69
2022-11-08T07:50:56.428Z,69.22
2022-11-08T07:53:23.537Z,69.79
2022-11-08T07:55:50.271Z,69.88
2022-11-08T07:58:17.154Z,70.02
2022-11-08T08:00:44.976Z,69.89
2022-11-08T08:03:13.952Z,69.92
2022-11-08T08:05:45.088Z,69.61
2022-11-08T08:08:13.497Z,69.96
2022-11-08T08:10:40.560Z,70.14
2022-11-08T08:13:07.348Z,69.99
2022-11-08T08:15:34.202Z,69.99
2022-11-08T08:18:04.634Z,69.68
2022-11-08T08:20:32.140Z,69.79
2022-11-08T08:22:59.026Z,69.75
2022-11-08T08:25:26.746Z,69.82
2022-11-08T08:27:55.381Z,69.48
2022-11-08T08:30:23.403Z,69.64
2022-11-08T08:33:08.430Z,69.50
2022-11-08T08:35:38.133Z,69.47
2022-11-08T08:38:05.876Z,69.28
2022-11-08T08:40:33.516Z,69.12
2022-11-08T08:43:00.261Z,68.88
2022-11-08T08:45:27.932Z,68.75
2022-11-08T08:47:56.022Z,68.42
2022-11-08T08:50:22.965Z,68.50
2022-11-08T08:52:49.596Z,68.60
2022-11-08T08:55:17.225Z,68.06
2022-11-08T08:57:47.968Z,66.08
2022-11-08T09:03:08.091Z,66.46
2022-11-08T09:05:35.177Z,67.49
2022-11-08T09:08:02.154Z,67.44
2022-11-08T09:10:28.763Z,67.20
2022-11-08T09:12:55.998Z,66.93
2022-11-08T09:15:22.635Z,66.67
2022-11-08T09:17:49.209Z,66.49
2022-11-08T09:20:15.710Z,65.99
2022-11-08T09:22:42.237Z,65.46
2022-11-08T09:25:08.945Z,65.45
2022-11-08T09:27:35.556Z,65.36
2022-11-08T09:30:02.292Z,65.24
2022-11-08T09:32:39.758Z,64.87
2022-11-08T09:35:15.412Z,64.43
2022-11-08T09:37:45.564Z,64.33
2022-11-08T09:40:38.029Z,62.58
2022-11-08T09:43:42.555Z,62.60
2022-11-08T09:46:23.265Z,62.60
2022-11-08T09:48:53.079Z,63.49
2022-11-08T09:51:23.350Z,63.25
2022-11-08T09:53:56.488Z,61.77
2022-11-08T09:56:28.016Z,63.95
2022-11-08T09:58:58.485Z,59.78
2022-11-08T10:01:27.364Z,62.68
2022-11-08T10:03:57.720Z,62.78
2022-11-08T10:06:46.149Z,60.95
2022-11-08T10:09:29.472Z,59.86
2022-11-08T10:12:01.882Z,60.27
2022-11-08T10:14:52.280Z,61.65
2022-11-08T10:17:32.829Z,60.72
2022-11-08T10:20:05.305Z,61.23
2022-11-08T10:23:15.150Z,61.08
2022-11-08T10:25:58.951Z,58.46
2022-11-08T10:28:38.589Z,59.11
2022-11-08T10:31:06.416Z,61.28
2022-11-08T10:33:57.269Z,57.97
2022-11-08T10:36:53.442Z,58.58
2022-11-08T10:39:27.575Z,58.17
2022-11-08T10:42:12.618Z,57.89
2022-11-08T10:44:40.927Z,58.52
2022-11-08T10:47:15.678Z,57.18
2022-11-08T10:49:43.601Z,58.98
2022-11-08T10:52:12.720Z,57.18
2022-11-08T10:54:53.286Z,53.79
2022-11-08T10:57:35.520Z,54.49
2022-11-08T11:00:20.221Z,54.65
2022-11-08T11:03:02.204Z,56.88
2022-11-08T11:05:41.794Z,53.30
2022-11-08T11:08:08.443Z,57.36
2022-11-08T11:10:39.315Z,55.98
2022-11-08T11:13:09.055Z,58.20
2022-11-08T11:15:37.208Z,57.74
2022-11-08T11:18:04.718Z,55.41
2022-11-08T11:20:31.654Z,58.38
2022-11-08T11:22:59.702Z,58.96
2022-11-08T11:25:26.129Z,59.74
2022-11-08T11:27:59.038Z,57.35
2022-11-08T11:30:28.045Z,59.20
2022-11-08T11:33:25.286Z,56.68
2022-11-08T11:35:54.858Z,57.63
2022-11-08T11:38:38.869Z,53.39
2022-11-08T11:41:12.986Z,55.21
2022-11-08T11:44:09.163Z,55.57
2022-11-08T11:47:20.481Z,54.63
2022-11-08T11:49:48.568Z,56.92
2022-11-08T11:52:15.926Z,57.62
2022-11-08T11:54:44.643Z,57.53
2022-11-08T11:57:27.285Z,54.23
2022-11-08T12:00:08.974Z,54.24
2022-11-08T12:02:56.538Z,53.03
2022-11-08T12:05:33.865Z,54.20
2022-11-08T12:08:18.725Z,52.15
2022-11-08T12:11:07.246Z,48.35
2022-11-08T12:14:00.173Z,50.26
2022-11-08T12:16:46.243Z,49.76
2022-11-08T12:19:33.708Z,52.66
2022-11-08T12:22:19.092Z,52.96
2022-11-08T12:24:53.981Z,55.45
2022-11-08T12:27:54.272Z,52.35
2022-11-08T12:30:26.367Z,52.90
2022-11-08T12:33:12.465Z,52.83
2022-11-08T12:35:57.264Z,47.61
2022-11-08T12:38:46.946Z,52.33
2022-11-08T12:41:20.779Z,49.14
2022-11-08T12:44:10.700Z,49.77
2022-11-08T12:46:52.111Z,51.36
2022-11-08T12:49:32.904Z,49.00
2022-11-08T12:52:12.138Z,51.06
2022-11-08T12:54:46.081Z,50.70
2022-11-08T12:57:16.299Z,51.25
2022-11-08T12:59:48.918Z,50.65
2022-11-08T13:02:24.737Z,49.96
2022-11-08T13:05:18.896Z,50.61
2022-11-08T13:07:57.788Z,52.44
2022-11-08T13:10:53.588Z,51.79
2022-11-08T13:13:53.010Z,51.81
2022-11-08T13:16:26.187Z,52.66
2022-11-08T13:19:00.465Z,50.30
2022-11-08T13:21:29.665Z,52.49
2022-11-08T13:24:10.035Z,51.74
2022-11-08T13:26:48.588Z,54.35
2022-11-08T13:29:18.043Z,52.77
2022-11-08T13:32:12.875Z,52.13
2022-11-08T13:34:48.934Z,54.01
2022-11-08T13:37:30.687Z,52.98
2022-11-08T13:40:12.621Z,52.57
2022-11-08T13:42:56.910Z,52.59
2022-11-08T13:45:28.542Z,53.48
2022-11-08T13:47:58.040Z,54.96
2022-11-08T13:50:30.395Z,52.00
2022-11-08T13:53:18.483Z,51.60
2022-11-08T13:55:49.603Z,53.17
2022-11-08T13:58:42.000Z,52.35
2022-11-08T14:01:28.671Z,52.66
2022-11-08T14:03:57.493Z,54.78
2022-11-08T14:06:41.739Z,53.05
2022-11-08T14:09:23.331Z,52.88
2022-11-08T14:11:55.457Z,51.58
2022-11-08T14:14:27.996Z,52.78
2022-11-08T14:17:12.304Z,52.62
2022-11-08T14:19:41.823Z,53.91
2022-11-08T14:22:16.184Z,53.12
2022-11-08T14:24:43.289Z,54.05
2022-11-08T14:27:12.534Z,53.40
2022-11-08T14:29:39.151Z,54.21
2022-11-08T14:32:19.311Z,53.58
2022-11-08T14:34:45.914Z,54.70
2022-11-08T14:37:23.021Z,53.66
2022-11-08T14:39:51.267Z,55.07
2022-11-08T14:42:22.165Z,55.67
2022-11-08T14:44:51.713Z,55.62
2022-11-08T14:47:27.739Z,54.87
2022-11-08T14:49:54.546Z,55.94
2022-11-08T14:52:30.623Z,55.17
2022-11-08T14:55:24.673Z,55.20
2022-11-08T14:57:51.334Z,56.51
2022-11-08T15:00:23.644Z,56.43
2022-11-08T15:03:02.837Z,56.10
2022-11-08T15:05:34.091Z,56.92
2022-11-08T15:08:03.048Z,57.17
2022-11-08T15:10:29.651Z,57.30
2022-11-08T15:12:57.099Z,57.42
2022-11-08T15:15:33.243Z,57.23
2022-11-08T15:18:18.025Z,57.28
2022-11-08T15:21:01.463Z,57.40
2022-11-08T15:23:50.811Z,57.57
2022-11-08T15:26:31.499Z,57.85
2022-11-08T15:29:00.495Z,58.10
2022-11-08T15:31:32.969Z,58.36
2022-11-08T15:33:59.652Z,58.45
2022-11-08T15:36:36.701Z,58.42
2022-11-08T15:39:05.026Z,58.73
2022-11-08T15:41:35.927Z,58.73
2022-11-08T15:44:26.839Z,58.89
2022-11-08T15:46:54.400Z,59.05
2022-11-08T15:49:22.686Z,59.18
2022-11-08T15:51:51.006Z,59.33
2022-11-08T15:54:20.556Z,59.43
2022-11-08T15:56:49.283Z,59.44
2022-11-08T15:59:21.493Z,59.54
2022-11-08T16:01:54.836Z,59.71
2022-11-08T16:04:21.365Z,59.69
2022-11-08T16:06:48.070Z,59.88
2022-11-08T16:09:14.619Z,60.04
2022-11-08T16:11:41.851Z,60.18
2022-11-08T16:14:20.984Z,60.51
2022-11-08T16:16:47.634Z,60.47
2022-11-08T16:19:27.086Z,60.85
2022-11-08T16:21:53.606Z,60.72
2022-11-08T16:24:20.274Z,60.80
2022-11-08T16:26:47.659Z,60.85
2022-11-08T16:29:23.977Z,61.21
2022-11-08T16:31:51.751Z,60.93
2022-11-08T16:34:18.834Z,61.12
2022-11-08T16:36:47.466Z,61.17
2022-11-08T16:39:16.841Z,61.31
2022-11-08T16:41:43.480Z,61.36
2022-11-08T16:44:10.993Z,61.48
2022-11-08T16:46:37.707Z,61.41
2022-11-08T16:49:06.122Z,61.44
2022-11-08T16:51:33.162Z,61.38
2022-11-08T16:54:01.893Z,61.06
2022-11-08T16:56:28.359Z,61.31
2022-11-08T16:58:54.884Z,61.43
2022-11-08T17:01:32.166Z,61.62
2022-11-08T17:03:58.704Z,61.84
2022-11-08T17:06:25.231Z,61.72
2022-11-08T17:08:51.771Z,61.63
2022-11-08T17:11:21.939Z,61.72
2022-11-08T17:13:49.322Z,61.81
2022-11-08T17:16:16.643Z,61.64
2022-11-08T17:18:43.110Z,61.71
2022-11-08T17:21:42.542Z,61.50
2022-11-08T17:23:59.446Z,61.83
2022-11-08T17:26:25.948Z,61.85
2022-11-08T17:28:55.577Z,61.88
2022-11-08T17:31:22.034Z,62.27
2022-11-08T17:33:48.578Z,62.39
2022-11-08T17:36:15.052Z,62.55
2022-11-08T17:38:42.636Z,62.63
2022-11-08T17:41:13.104Z,63.02
2022-11-08T17:43:40.306Z,63.03
2022-11-08T17:46:07.541Z,63.27
2022-11-08T17:48:34.298Z,63.10
2022-11-08T17:51:01.051Z,63.16
2022-11-08T17:53:27.902Z,63.14
2022-11-08T17:55:58.158Z,63.42
2022-11-08T17:58:25.029Z,63.52
2022-11-08T18:00:56.409Z,63.38
2022-11-08T18:03:24.068Z,63.79
2022-11-08T18:05:54.095Z,63.83
2022-11-08T18:08:26.478Z,63.98
2022-11-08T18:10:53.597Z,63.97
2022-11-08T18:13:20.781Z,64.20
2022-11-08T18:15:47.734Z,64.06
2022-11-08T18:18:14.242Z,64.15
2022-11-08T18:20:40.812Z,64.26
2022-11-08T18:23:07.284Z,64.25
2022-11-08T18:25:34.428Z,64.31
2022-11-08T18:28:01.013Z,64.32
2022-11-08T18:30:27.705Z,64.27
2022-11-08T18:32:54.324Z,64.35
2022-11-08T18:35:21.086Z,64.51
2022-11-08T18:37:47.615Z,64.66
2022-11-08T18:40:14.106Z,64.66
2022-11-08T18:42:40.571Z,64.62
2022-11-08T18:45:07.590Z,64.75
2022-11-08T18:47:34.522Z,64.98
2022-11-08T18:50:01.076Z,65.05
2022-11-08T18:52:28.596Z,64.97
2022-11-08T18:54:55.241Z,65.13
2022-11-08T18:57:22.601Z,65.18
2022-11-08T18:59:49.074Z,65.08
2022-11-08T19:02:15.577Z,64.93
2022-11-08T19:04:42.093Z,65.07
2022-11-08T19:07:08.594Z,65.27
2022-11-08T19:09:35.657Z,65.20
2022-11-08T19:12:05.862Z,65.31
2022-11-08T19:14:32.865Z,65.23
2022-11-08T19:16:59.506Z,65.39
2022-11-08T19:19:26.061Z,65.31
2022-11-08T19:21:52.626Z,65.32
2022-11-08T19:24:21.150Z,65.40
2022-11-08T19:26:48.116Z,65.49
2022-11-08T19:29:14.780Z,65.47
2022-11-08T19:31:41.763Z,65.54
2022-11-08T19:34:09.127Z,65.45
2022-11-08T19:36:35.699Z,65.52
2022-11-08T19:39:02.241Z,65.53
2022-11-08T19:41:28.940Z,65.56
2022-11-08T19:43:55.574Z,65.42
2022-11-08T19:46:27.487Z,65.38
2022-11-08T19:48:54.362Z,65.43
2022-11-08T19:51:25.795Z,65.01
2022-11-08T19:53:57.265Z,65.01
2022-11-08T19:56:43.378Z,65.43
2022-11-08T19:59:10.711Z,65.25
2022-11-08T20:01:40.425Z,65.26
2022-11-08T20:04:09.799Z,65.17
2022-11-08T20:06:37.218Z,65.29
2022-11-08T20:09:05.263Z,65.13
2022-11-08T20:11:35.273Z,64.98
2022-11-08T20:14:02.937Z,65.15
2022-11-08T20:16:35.134Z,64.70
2022-11-08T20:19:10.801Z,64.72
2022-11-08T20:21:37.675Z,65.10
2022-11-08T20:24:04.568Z,65.19
2022-11-08T20:26:31.034Z,65.11
2022-11-08T20:28:57.592Z,65.11
2022-11-08T20:31:25.522Z,64.99
2022-11-08T20:33:53.125Z,64.46
2022-11-08T20:36:22.074Z,64.99
2022-11-08T20:38:48.555Z,64.99
2022-11-08T20:41:16.519Z,65.22
2022-11-08T20:43:44.057Z,64.51
2022-11-08T20:46:13.124Z,64.91
2022-11-08T20:48:42.951Z,64.91
2022-11-08T20:51:14.189Z,64.98
2022-11-08T20:53:41.754Z,64.89
2022-11-08T20:56:34.680Z,63.96
2022-11-08T20:59:01.769Z,64.80
2022-11-08T21:01:29.816Z,64.92
2022-11-08T21:03:56.478Z,64.11
2022-11-08T21:06:25.060Z,64.58
2022-11-08T21:09:04.843Z,64.65
2022-11-08T21:11:34.942Z,64.56
2022-11-08T21:14:02.883Z,64.34
2022-11-08T21:16:35.144Z,64.24
2022-11-08T21:19:05.351Z,64.26
2022-11-08T21:21:31.837Z,64.17
2022-11-08T21:23:58.394Z,64.09
2022-11-08T21:26:25.356Z,63.89
2022-11-08T21:28:51.898Z,63.80
2022-11-08T21:31:18.562Z,63.80
2022-11-08T21:33:45.075Z,63.72
2022-11-08T21:36:12.009Z,63.68
2022-11-08T21:38:39.658Z,63.55
2022-11-08T21:41:08.679Z,63.55
2022-11-08T21:43:36.995Z,63.70
2022-11-08T21:46:19.322Z,63.36
2022-11-08T21:48:46.171Z,63.82
2022-11-08T21:51:12.929Z,63.90
2022-11-08T21:53:49.423Z,64.03
2022-11-08T21:56:21.123Z,64.15
2022-11-08T21:58:47.829Z,64.09
2022-11-08T22:01:14.382Z,64.32
2022-11-08T22:03:40.950Z,64.25
2022-11-08T22:06:08.353Z,64.36
2022-11-08T22:08:34.967Z,64.46
2022-11-08T22:11:01.430Z,64.38
2022-11-08T22:13:28.012Z,64.48
2022-11-08T22:15:54.866Z,64.54
2022-11-08T22:18:31.053Z,64.48
2022-11-08T22:21:03.337Z,64.32
2022-11-08T22:23:29.974Z,64.31
2022-11-08T22:25:56.409Z,64.39
2022-11-08T22:28:23.033Z,64.35
2022-11-08T22:30:51.341Z,64.40
2022-11-08T22:33:19.387Z,64.57
2022-11-08T22:35:47.158Z,64.69
2022-11-08T22:38:14.917Z,64.52
2022-11-08T22:40:44.149Z,64.64
2022-11-08T22:43:10.691Z,64.53
2022-11-08T22:45:42.022Z,64.23
2022-11-08T22:48:09.374Z,64.62
2022-11-08T22:50:36.835Z,64.57
2022-11-08T22:53:03.791Z,64.69
2022-11-08T22:55:30.289Z,64.70
2022-11-08T22:57:56.819Z,64.79
2022-11-08T23:00:23.397Z,64.86
2022-11-08T23:02:50.185Z,64.72
2022-11-08T23:05:16.836Z,64.68
2022-11-08T23:07:43.439Z,64.67
2022-11-08T23:10:10.307Z,64.72
2022-11-08T23:12:36.781Z,64.86
2022-11-08T23:15:03.422Z,64.74
2022-11-08T23:17:30.592Z,64.71
2022-11-08T23:19:57.011Z,64.73
2022-11-08T23:22:23.669Z,64.76
2022-11-08T23:24:50.129Z,64.91
2022-11-08T23:27:18.412Z,64.94
2022-11-08T23:29:45.134Z,64.48
2022-11-08T23:32:11.604Z,64.78
2022-11-08T23:34:38.098Z,64.78
2022-11-08T23:37:04.710Z,64.90
2022-11-08T23:39:31.317Z,64.91
2022-11-08T23:41:57.843Z,65.00
2022-11-08T23:44:24.508Z,64.76
2022-11-08T23:46:57.935Z,64.58
2022-11-08T23:49:24.578Z,64.84
2022-11-08T23:51:52.192Z,64.96
2022-11-08T23:54:19.322Z,64.85
2022-11-08T23:56:46.598Z,64.99
2022-11-08T23:59:14.557Z,64.86
